sensor_id;sensor_type;location;lat;lon;timestamp;pressure;altitude;pressure_sealevel;temperature
69186;BMP280;56298;49.246;9.410;2023-01-23T00:00:36;100719.94;;;0.95
69186;BMP280;56298;49.246;9.410;2023-01-23T00:03:02;100720.41;;;0.91
69186;BMP280;56298;49.246;9.410;2023-01-23T00:05:27;100717.22;;;0.95
69186;BMP280;56298;49.246;9.410;2023-01-23T00:07:52;100722.94;;;0.98
69186;BMP280;56298;49.246;9.410;2023-01-23T00:10:18;100725.88;;;0.97
69186;BMP280;56298;49.246;9.410;2023-01-23T00:12:44;100728.09;;;1.00
69186;BMP280;56298;49.246;9.410;2023-01-23T00:15:11;100728.75;;;0.90
69186;BMP280;56298;49.246;9.410;2023-01-23T00:17:37;100730.25;;;0.81
69186;BMP280;56298;49.246;9.410;2023-01-23T00:20:05;100728.41;;;1.03
69186;BMP280;56298;49.246;9.410;2023-01-23T00:22:30;100723.19;;;0.97
69186;BMP280;56298;49.246;9.410;2023-01-23T00:24:56;100724.13;;;0.85
69186;BMP280;56298;49.246;9.410;2023-01-23T00:27:21;100716.72;;;0.98
69186;BMP280;56298;49.246;9.410;2023-01-23T00:29:46;100722.72;;;0.83
69186;BMP280;56298;49.246;9.410;2023-01-23T00:32:12;100716.88;;;0.91
69186;BMP280;56298;49.246;9.410;2023-01-23T00:34:37;100714.25;;;0.96
69186;BMP280;56298;49.246;9.410;2023-01-23T00:37:03;100716.41;;;0.94
69186;BMP280;56298;49.246;9.410;2023-01-23T00:39:28;100725.44;;;0.83
69186;BMP280;56298;49.246;9.410;2023-01-23T00:41:53;100719.41;;;0.98
69186;BMP280;56298;49.246;9.410;2023-01-23T00:44:19;100723.91;;;1.09
69186;BMP280;56298;49.246;9.410;2023-01-23T00:46:44;100727.69;;;0.91
69186;BMP280;56298;49.246;9.410;2023-01-23T00:49:10;100722.03;;;0.92
69186;BMP280;56298;49.246;9.410;2023-01-23T00:51:35;100725.47;;;1.05
69186;BMP280;56298;49.246;9.410;2023-01-23T00:54:00;100724.34;;;1.23
69186;BMP280;56298;49.246;9.410;2023-01-23T00:56:26;100722.59;;;1.12
69186;BMP280;56298;49.246;9.410;2023-01-23T00:58:51;100732.25;;;1.08
69186;BMP280;56298;49.246;9.410;2023-01-23T01:01:17;100732.53;;;0.89
69186;BMP280;56298;49.246;9.410;2023-01-23T01:03:43;100737.75;;;0.96
69186;BMP280;56298;49.246;9.410;2023-01-23T01:06:10;100729.72;;;1.01
69186;BMP280;56298;49.246;9.410;2023-01-23T01:08:35;100743.66;;;0.92
69186;BMP280;56298;49.246;9.410;2023-01-23T01:11:01;100742.75;;;0.87
69186;BMP280;56298;49.246;9.410;2023-01-23T01:13:26;100743.44;;;0.77
69186;BMP280;56298;49.246;9.410;2023-01-23T01:15:52;100745.44;;;0.87
69186;BMP280;56298;49.246;9.410;2023-01-23T01:18:19;100740.22;;;0.80
69186;BMP280;56298;49.246;9.410;2023-01-23T01:20:44;100732.69;;;0.82
69186;BMP280;56298;49.246;9.410;2023-01-23T01:23:10;100746.69;;;0.79
69186;BMP280;56298;49.246;9.410;2023-01-23T01:25:36;100744.00;;;0.79
69186;BMP280;56298;49.246;9.410;2023-01-23T01:28:01;100757.66;;;0.72
69186;BMP280;56298;49.246;9.410;2023-01-23T01:30:27;100754.72;;;0.74
69186;BMP280;56298;49.246;9.410;2023-01-23T01:32:53;100753.25;;;0.66
69186;BMP280;56298;49.246;9.410;2023-01-23T01:35:19;100759.22;;;0.85
69186;BMP280;56298;49.246;9.410;2023-01-23T01:37:45;100759.88;;;0.75
69186;BMP280;56298;49.246;9.410;2023-01-23T01:40:20;100759.94;;;0.81
69186;BMP280;56298;49.246;9.410;2023-01-23T01:43:07;100763.97;;;0.78
69186;BMP280;56298;49.246;9.410;2023-01-23T01:48:40;100759.13;;;0.97
69186;BMP280;56298;49.246;9.410;2023-01-23T01:51:15;100766.13;;;1.15
69186;BMP280;56298;49.246;9.410;2023-01-23T01:53:42;100763.22;;;1.00
69186;BMP280;56298;49.246;9.410;2023-01-23T01:56:11;100757.63;;;1.07
69186;BMP280;56298;49.246;9.410;2023-01-23T01:58:40;100770.69;;;1.32
69186;BMP280;56298;49.246;9.410;2023-01-23T02:01:06;100782.00;;;1.12
69186;BMP280;56298;49.246;9.410;2023-01-23T02:03:32;100781.78;;;1.13
69186;BMP280;56298;49.246;9.410;2023-01-23T02:05:57;100775.22;;;1.09
69186;BMP280;56298;49.246;9.410;2023-01-23T02:08:31;100778.06;;;1.20
69186;BMP280;56298;49.246;9.410;2023-01-23T02:10:58;100776.19;;;1.03
69186;BMP280;56298;49.246;9.410;2023-01-23T02:15:57;100773.38;;;1.15
69186;BMP280;56298;49.246;9.410;2023-01-23T02:18:23;100761.00;;;0.97
69186;BMP280;56298;49.246;9.410;2023-01-23T02:20:51;100770.72;;;0.98
69186;BMP280;56298;49.246;9.410;2023-01-23T02:26:04;100774.41;;;1.09
69186;BMP280;56298;49.246;9.410;2023-01-23T02:28:40;100777.50;;;1.00
69186;BMP280;56298;49.246;9.410;2023-01-23T02:31:06;100778.91;;;1.03
69186;BMP280;56298;49.246;9.410;2023-01-23T02:36:02;100777.38;;;0.90
69186;BMP280;56298;49.246;9.410;2023-01-23T02:38:33;100775.41;;;1.02
69186;BMP280;56298;49.246;9.410;2023-01-23T02:41:01;100778.59;;;0.99
69186;BMP280;56298;49.246;9.410;2023-01-23T02:43:28;100780.44;;;0.99
69186;BMP280;56298;49.246;9.410;2023-01-23T02:46:03;100779.91;;;0.97
69186;BMP280;56298;49.246;9.410;2023-01-23T02:48:29;100773.94;;;0.95
69186;BMP280;56298;49.246;9.410;2023-01-23T02:50:54;100756.59;;;0.90
69186;BMP280;56298;49.246;9.410;2023-01-23T02:53:19;100761.91;;;0.85
69186;BMP280;56298;49.246;9.410;2023-01-23T02:55:44;100762.34;;;0.77
69186;BMP280;56298;49.246;9.410;2023-01-23T02:58:10;100776.47;;;0.84
69186;BMP280;56298;49.246;9.410;2023-01-23T03:00:54;100764.34;;;0.87
69186;BMP280;56298;49.246;9.410;2023-01-23T03:03:19;100773.13;;;0.77
69186;BMP280;56298;49.246;9.410;2023-01-23T03:05:46;100771.34;;;0.83
69186;BMP280;56298;49.246;9.410;2023-01-23T03:08:11;100767.41;;;0.90
69186;BMP280;56298;49.246;9.410;2023-01-23T03:10:36;100773.03;;;0.89
69186;BMP280;56298;49.246;9.410;2023-01-23T03:13:02;100769.75;;;0.87
69186;BMP280;56298;49.246;9.410;2023-01-23T03:15:31;100780.06;;;0.90
69186;BMP280;56298;49.246;9.410;2023-01-23T03:17:57;100779.69;;;0.81
69186;BMP280;56298;49.246;9.410;2023-01-23T03:20:22;100785.56;;;0.78
69186;BMP280;56298;49.246;9.410;2023-01-23T03:22:48;100784.47;;;0.96
69186;BMP280;56298;49.246;9.410;2023-01-23T03:25:14;100787.03;;;0.86
69186;BMP280;56298;49.246;9.410;2023-01-23T03:27:40;100781.06;;;0.84
69186;BMP280;56298;49.246;9.410;2023-01-23T03:30:06;100768.88;;;0.81
69186;BMP280;56298;49.246;9.410;2023-01-23T03:32:39;100771.81;;;0.79
69186;BMP280;56298;49.246;9.410;2023-01-23T03:35:06;100780.63;;;0.75
69186;BMP280;56298;49.246;9.410;2023-01-23T03:37:31;100779.00;;;0.74
69186;BMP280;56298;49.246;9.410;2023-01-23T03:39:56;100781.47;;;0.75
69186;BMP280;56298;49.246;9.410;2023-01-23T03:42:40;100779.59;;;0.76
69186;BMP280;56298;49.246;9.410;2023-01-23T03:45:06;100782.38;;;0.81
69186;BMP280;56298;49.246;9.410;2023-01-23T03:47:32;100779.81;;;0.91
69186;BMP280;56298;49.246;9.410;2023-01-23T03:49:57;100782.38;;;0.81
69186;BMP280;56298;49.246;9.410;2023-01-23T03:52:22;100779.91;;;0.97
69186;BMP280;56298;49.246;9.410;2023-01-23T03:54:48;100768.78;;;0.93
69186;BMP280;56298;49.246;9.410;2023-01-23T03:57:13;100768.13;;;0.86
69186;BMP280;56298;49.246;9.410;2023-01-23T03:59:38;100759.75;;;1.04
69186;BMP280;56298;49.246;9.410;2023-01-23T04:02:04;100768.19;;;0.91
69186;BMP280;56298;49.246;9.410;2023-01-23T04:04:30;100767.16;;;0.92
69186;BMP280;56298;49.246;9.410;2023-01-23T04:06:56;100772.22;;;0.88
69186;BMP280;56298;49.246;9.410;2023-01-23T04:09:21;100766.25;;;0.86
69186;BMP280;56298;49.246;9.410;2023-01-23T04:11:52;100755.03;;;0.95
69186;BMP280;56298;49.246;9.410;2023-01-23T04:14:17;100767.56;;;0.84
69186;BMP280;56298;49.246;9.410;2023-01-23T04:16:42;100775.50;;;0.73
69186;BMP280;56298;49.246;9.410;2023-01-23T04:19:07;100778.78;;;0.75
69186;BMP280;56298;49.246;9.410;2023-01-23T04:21:33;100786.47;;;0.67
69186;BMP280;56298;49.246;9.410;2023-01-23T04:23:58;100786.19;;;0.68
69186;BMP280;56298;49.246;9.410;2023-01-23T04:26:23;100782.38;;;0.64
69186;BMP280;56298;49.246;9.410;2023-01-23T04:28:48;100787.84;;;0.52
69186;BMP280;56298;49.246;9.410;2023-01-23T04:31:14;100806.84;;;0.57
69186;BMP280;56298;49.246;9.410;2023-01-23T04:33:39;100803.22;;;0.69
69186;BMP280;56298;49.246;9.410;2023-01-23T04:36:06;100805.44;;;0.55
69186;BMP280;56298;49.246;9.410;2023-01-23T04:38:32;100812.31;;;0.62
69186;BMP280;56298;49.246;9.410;2023-01-23T04:40:57;100819.09;;;0.65
69186;BMP280;56298;49.246;9.410;2023-01-23T04:43:23;100823.19;;;0.68
69186;BMP280;56298;49.246;9.410;2023-01-23T04:45:50;100822.88;;;0.64
69186;BMP280;56298;49.246;9.410;2023-01-23T04:48:16;100826.97;;;0.67
69186;BMP280;56298;49.246;9.410;2023-01-23T04:50:41;100830.75;;;0.83
69186;BMP280;56298;49.246;9.410;2023-01-23T04:53:06;100821.16;;;0.92
69186;BMP280;56298;49.246;9.410;2023-01-23T04:55:32;100832.53;;;0.77
69186;BMP280;56298;49.246;9.410;2023-01-23T04:57:58;100830.22;;;0.69
69186;BMP280;56298;49.246;9.410;2023-01-23T05:00:23;100828.28;;;0.81
69186;BMP280;56298;49.246;9.410;2023-01-23T05:02:49;100832.69;;;0.87
69186;BMP280;56298;49.246;9.410;2023-01-23T05:05:14;100839.47;;;0.90
69186;BMP280;56298;49.246;9.410;2023-01-23T05:07:42;100839.00;;;0.93
69186;BMP280;56298;49.246;9.410;2023-01-23T05:10:08;100832.19;;;1.08
69186;BMP280;56298;49.246;9.410;2023-01-23T05:12:33;100832.03;;;0.97
69186;BMP280;56298;49.246;9.410;2023-01-23T05:14:58;100842.69;;;1.04
69186;BMP280;56298;49.246;9.410;2023-01-23T05:17:24;100831.72;;;1.11
69186;BMP280;56298;49.246;9.410;2023-01-23T05:19:49;100840.06;;;1.09
69186;BMP280;56298;49.246;9.410;2023-01-23T05:22:14;100841.38;;;1.07
69186;BMP280;56298;49.246;9.410;2023-01-23T05:24:41;100832.59;;;0.99
69186;BMP280;56298;49.246;9.410;2023-01-23T05:27:07;100834.00;;;1.02
69186;BMP280;56298;49.246;9.410;2023-01-23T05:29:32;100841.94;;;0.91
69186;BMP280;56298;49.246;9.410;2023-01-23T05:31:57;100849.38;;;0.84
69186;BMP280;56298;49.246;9.410;2023-01-23T05:34:22;100848.06;;;0.87
69186;BMP280;56298;49.246;9.410;2023-01-23T05:36:48;100848.97;;;0.92
69186;BMP280;56298;49.246;9.410;2023-01-23T05:39:13;100845.19;;;0.94
69186;BMP280;56298;49.246;9.410;2023-01-23T05:41:38;100846.75;;;0.89
69186;BMP280;56298;49.246;9.410;2023-01-23T05:44:04;100841.78;;;0.98
69186;BMP280;56298;49.246;9.410;2023-01-23T05:46:29;100843.47;;;1.04
69186;BMP280;56298;49.246;9.410;2023-01-23T05:48:54;100843.13;;;1.35
69186;BMP280;56298;49.246;9.410;2023-01-23T05:51:20;100843.53;;;1.27
69186;BMP280;56298;49.246;9.410;2023-01-23T05:53:46;100832.66;;;1.22
69186;BMP280;56298;49.246;9.410;2023-01-23T05:56:11;100837.81;;;1.45
69186;BMP280;56298;49.246;9.410;2023-01-23T05:58:37;100839.97;;;1.43
69186;BMP280;56298;49.246;9.410;2023-01-23T06:01:03;100834.22;;;1.35
69186;BMP280;56298;49.246;9.410;2023-01-23T06:03:28;100837.72;;;1.35
69186;BMP280;56298;49.246;9.410;2023-01-23T06:05:53;100838.81;;;1.39
69186;BMP280;56298;49.246;9.410;2023-01-23T06:08:19;100849.63;;;1.39
69186;BMP280;56298;49.246;9.410;2023-01-23T06:10:44;100843.72;;;1.20
69186;BMP280;56298;49.246;9.410;2023-01-23T06:13:09;100850.28;;;1.07
69186;BMP280;56298;49.246;9.410;2023-01-23T06:15:35;100856.97;;;1.22
69186;BMP280;56298;49.246;9.410;2023-01-23T06:18:00;100862.47;;;1.27
69186;BMP280;56298;49.246;9.410;2023-01-23T06:20:25;100859.28;;;1.13
69186;BMP280;56298;49.246;9.410;2023-01-23T06:22:51;100867.56;;;0.89
69186;BMP280;56298;49.246;9.410;2023-01-23T06:25:16;100884.56;;;0.89
69186;BMP280;56298;49.246;9.410;2023-01-23T06:27:44;100887.53;;;0.88
69186;BMP280;56298;49.246;9.410;2023-01-23T06:30:10;100884.41;;;0.96
69186;BMP280;56298;49.246;9.410;2023-01-23T06:32:35;100890.63;;;0.79
69186;BMP280;56298;49.246;9.410;2023-01-23T06:35:01;100888.94;;;0.90
69186;BMP280;56298;49.246;9.410;2023-01-23T06:37:26;100898.41;;;0.93
69186;BMP280;56298;49.246;9.410;2023-01-23T06:39:51;100903.16;;;0.86
69186;BMP280;56298;49.246;9.410;2023-01-23T06:42:17;100895.28;;;0.84
69186;BMP280;56298;49.246;9.410;2023-01-23T06:44:42;100899.13;;;0.88
69186;BMP280;56298;49.246;9.410;2023-01-23T06:47:07;100904.53;;;0.88
69186;BMP280;56298;49.246;9.410;2023-01-23T06:49:32;100907.97;;;0.84
69186;BMP280;56298;49.246;9.410;2023-01-23T06:51:58;100923.69;;;0.87
69186;BMP280;56298;49.246;9.410;2023-01-23T06:54:23;100920.66;;;0.83
69186;BMP280;56298;49.246;9.410;2023-01-23T06:56:48;100924.59;;;0.92
69186;BMP280;56298;49.246;9.410;2023-01-23T06:59:14;100934.69;;;0.97
69186;BMP280;56298;49.246;9.410;2023-01-23T07:01:40;100927.75;;;1.18
69186;BMP280;56298;49.246;9.410;2023-01-23T07:04:06;100932.31;;;1.18
69186;BMP280;56298;49.246;9.410;2023-01-23T07:06:33;100925.03;;;1.01
69186;BMP280;56298;49.246;9.410;2023-01-23T07:08:58;100935.31;;;1.04
69186;BMP280;56298;49.246;9.410;2023-01-23T07:11:23;100944.09;;;1.12
69186;BMP280;56298;49.246;9.410;2023-01-23T07:13:49;100946.63;;;1.01
69186;BMP280;56298;49.246;9.410;2023-01-23T07:16:14;100950.41;;;1.17
69186;BMP280;56298;49.246;9.410;2023-01-23T07:18:39;100955.88;;;1.05
69186;BMP280;56298;49.246;9.410;2023-01-23T07:21:05;100950.59;;;1.11
69186;BMP280;56298;49.246;9.410;2023-01-23T07:23:32;100954.97;;;1.00
69186;BMP280;56298;49.246;9.410;2023-01-23T07:26:02;100956.44;;;0.90
69186;BMP280;56298;49.246;9.410;2023-01-23T07:28:29;100955.06;;;1.05
69186;BMP280;56298;49.246;9.410;2023-01-23T07:30:56;100950.97;;;1.02
69186;BMP280;56298;49.246;9.410;2023-01-23T07:33:22;100954.63;;;0.96
69186;BMP280;56298;49.246;9.410;2023-01-23T07:35:47;100963.88;;;1.00
69186;BMP280;56298;49.246;9.410;2023-01-23T07:38:13;100956.13;;;1.04
69186;BMP280;56298;49.246;9.410;2023-01-23T07:40:38;100963.09;;;1.17
69186;BMP280;56298;49.246;9.410;2023-01-23T07:43:06;100960.97;;;1.19
69186;BMP280;56298;49.246;9.410;2023-01-23T07:45:31;100957.78;;;1.05
69186;BMP280;56298;49.246;9.410;2023-01-23T07:48:05;100957.25;;;0.91
69186;BMP280;56298;49.246;9.410;2023-01-23T07:50:31;100965.44;;;0.96
69186;BMP280;56298;49.246;9.410;2023-01-23T07:52:56;100974.94;;;0.99
69186;BMP280;56298;49.246;9.410;2023-01-23T07:55:21;100971.66;;;0.97
69186;BMP280;56298;49.246;9.410;2023-01-23T07:57:47;100969.66;;;1.21
69186;BMP280;56298;49.246;9.410;2023-01-23T08:00:12;100973.91;;;1.00
69186;BMP280;56298;49.246;9.410;2023-01-23T08:02:38;100964.81;;;1.06
69186;BMP280;56298;49.246;9.410;2023-01-23T08:05:04;100960.31;;;0.95
69186;BMP280;56298;49.246;9.410;2023-01-23T08:07:29;100964.25;;;1.04
69186;BMP280;56298;49.246;9.410;2023-01-23T08:09:55;100968.00;;;1.20
69186;BMP280;56298;49.246;9.410;2023-01-23T08:12:20;100975.59;;;1.40
69186;BMP280;56298;49.246;9.410;2023-01-23T08:14:46;100974.13;;;1.50
69186;BMP280;56298;49.246;9.410;2023-01-23T08:17:11;100971.19;;;1.51
69186;BMP280;56298;49.246;9.410;2023-01-23T08:19:36;100959.06;;;1.54
69186;BMP280;56298;49.246;9.410;2023-01-23T08:22:02;100966.38;;;1.36
69186;BMP280;56298;49.246;9.410;2023-01-23T08:24:27;100954.22;;;1.39
69186;BMP280;56298;49.246;9.410;2023-01-23T08:26:52;100969.16;;;1.41
69186;BMP280;56298;49.246;9.410;2023-01-23T08:29:17;100963.41;;;1.55
69186;BMP280;56298;49.246;9.410;2023-01-23T08:31:43;100955.56;;;1.53
69186;BMP280;56298;49.246;9.410;2023-01-23T08:34:08;100968.56;;;1.39
69186;BMP280;56298;49.246;9.410;2023-01-23T08:36:34;100959.09;;;1.37
69186;BMP280;56298;49.246;9.410;2023-01-23T08:38:59;100961.53;;;1.38
69186;BMP280;56298;49.246;9.410;2023-01-23T08:41:24;100944.56;;;1.43
69186;BMP280;56298;49.246;9.410;2023-01-23T08:43:50;100950.91;;;1.31
69186;BMP280;56298;49.246;9.410;2023-01-23T08:46:15;100948.28;;;1.37
69186;BMP280;56298;49.246;9.410;2023-01-23T08:48:41;100947.78;;;1.40
69186;BMP280;56298;49.246;9.410;2023-01-23T08:51:10;100947.09;;;1.50
69186;BMP280;56298;49.246;9.410;2023-01-23T08:53:36;100950.25;;;1.41
69186;BMP280;56298;49.246;9.410;2023-01-23T08:56:04;100948.56;;;1.57
69186;BMP280;56298;49.246;9.410;2023-01-23T08:58:30;100946.41;;;1.77
69186;BMP280;56298;49.246;9.410;2023-01-23T09:00:56;100958.91;;;1.43
69186;BMP280;56298;49.246;9.410;2023-01-23T09:03:21;100943.91;;;1.53
69186;BMP280;56298;49.246;9.410;2023-01-23T09:05:47;100944.06;;;1.63
69186;BMP280;56298;49.246;9.410;2023-01-23T09:08:12;100942.59;;;1.55
69186;BMP280;56298;49.246;9.410;2023-01-23T09:10:37;100947.84;;;1.45
69186;BMP280;56298;49.246;9.410;2023-01-23T09:13:03;100945.03;;;1.74
69186;BMP280;56298;49.246;9.410;2023-01-23T09:15:28;100941.03;;;1.60
69186;BMP280;56298;49.246;9.410;2023-01-23T09:17:53;100951.16;;;1.69
69186;BMP280;56298;49.246;9.410;2023-01-23T09:20:19;100950.19;;;1.76
69186;BMP280;56298;49.246;9.410;2023-01-23T09:22:44;100952.47;;;1.84
69186;BMP280;56298;49.246;9.410;2023-01-23T09:25:10;100954.78;;;1.75
69186;BMP280;56298;49.246;9.410;2023-01-23T09:27:36;100961.63;;;1.83
69186;BMP280;56298;49.246;9.410;2023-01-23T09:30:01;100960.66;;;1.89
69186;BMP280;56298;49.246;9.410;2023-01-23T09:32:26;100954.53;;;1.77
69186;BMP280;56298;49.246;9.410;2023-01-23T09:34:51;100959.59;;;1.90
69186;BMP280;56298;49.246;9.410;2023-01-23T09:37:18;100963.47;;;1.60
69186;BMP280;56298;49.246;9.410;2023-01-23T09:39:44;100951.50;;;1.73
69186;BMP280;56298;49.246;9.410;2023-01-23T09:42:28;100960.59;;;1.84
69186;BMP280;56298;49.246;9.410;2023-01-23T09:45:03;100962.97;;;1.80
69186;BMP280;56298;49.246;9.410;2023-01-23T09:47:48;100957.00;;;2.01
69186;BMP280;56298;49.246;9.410;2023-01-23T09:50:24;100960.41;;;2.13
69186;BMP280;56298;49.246;9.410;2023-01-23T09:53:37;100957.34;;;2.27
69186;BMP280;56298;49.246;9.410;2023-01-23T09:58:18;100953.63;;;2.33
69186;BMP280;56298;49.246;9.410;2023-01-23T10:00:44;100960.22;;;2.20
69186;BMP280;56298;49.246;9.410;2023-01-23T10:03:12;100971.78;;;2.15
69186;BMP280;56298;49.246;9.410;2023-01-23T10:05:45;100958.13;;;2.27
69186;BMP280;56298;49.246;9.410;2023-01-23T10:08:20;100954.66;;;2.09
69186;BMP280;56298;49.246;9.410;2023-01-23T10:19:08;100963.31;;;2.29
69186;BMP280;56298;49.246;9.410;2023-01-23T10:24:13;100968.09;;;2.21
69186;BMP280;56298;49.246;9.410;2023-01-23T10:26:42;100974.81;;;2.19
69186;BMP280;56298;49.246;9.410;2023-01-23T10:29:14;100959.41;;;2.19
69186;BMP280;56298;49.246;9.410;2023-01-23T10:31:47;100950.31;;;2.31
69186;BMP280;56298;49.246;9.410;2023-01-23T10:34:20;100957.00;;;2.45
69186;BMP280;56298;49.246;9.410;2023-01-23T10:37:06;100968.44;;;2.53
69186;BMP280;56298;49.246;9.410;2023-01-23T10:39:56;100963.78;;;2.25
69186;BMP280;56298;49.246;9.410;2023-01-23T10:42:25;100966.19;;;2.22
69186;BMP280;56298;49.246;9.410;2023-01-23T10:44:51;100959.59;;;2.35
69186;BMP280;56298;49.246;9.410;2023-01-23T10:47:20;100957.28;;;2.21
69186;BMP280;56298;49.246;9.410;2023-01-23T10:49:48;100955.53;;;2.37
69186;BMP280;56298;49.246;9.410;2023-01-23T10:52:43;100961.63;;;2.50
69186;BMP280;56298;49.246;9.410;2023-01-23T10:57:48;100948.72;;;2.57
69186;BMP280;56298;49.246;9.410;2023-01-23T11:02:42;100948.03;;;2.45
69186;BMP280;56298;49.246;9.410;2023-01-23T11:05:35;100945.44;;;2.55
69186;BMP280;56298;49.246;9.410;2023-01-23T11:08:02;100946.25;;;2.56
69186;BMP280;56298;49.246;9.410;2023-01-23T11:10:27;100951.09;;;2.54
69186;BMP280;56298;49.246;9.410;2023-01-23T11:12:54;100958.59;;;2.74
69186;BMP280;56298;49.246;9.410;2023-01-23T11:17:54;100951.56;;;2.45
69186;BMP280;56298;49.246;9.410;2023-01-23T11:20:30;100953.19;;;2.74
69186;BMP280;56298;49.246;9.410;2023-01-23T11:25:40;100947.28;;;2.77
69186;BMP280;56298;49.246;9.410;2023-01-23T11:34:04;100934.53;;;3.10
69186;BMP280;56298;49.246;9.410;2023-01-23T11:40:06;100928.63;;;3.67
69186;BMP280;56298;49.246;9.410;2023-01-23T11:42:12;100937.16;;;3.91
69186;BMP280;56298;49.246;9.410;2023-01-23T11:44:39;100924.03;;;3.62
69186;BMP280;56298;49.246;9.410;2023-01-23T11:49:55;100921.03;;;3.58
69186;BMP280;56298;49.246;9.410;2023-01-23T12:04:22;100906.22;;;3.34
69186;BMP280;56298;49.246;9.410;2023-01-23T12:09:44;100907.59;;;3.36
69186;BMP280;56298;49.246;9.410;2023-01-23T12:12:30;100905.66;;;3.31
69186;BMP280;56298;49.246;9.410;2023-01-23T12:15:08;100899.16;;;3.27
69186;BMP280;56298;49.246;9.410;2023-01-23T12:26:35;100880.66;;;3.72
69186;BMP280;56298;49.246;9.410;2023-01-23T12:30:08;100881.78;;;3.82
69186;BMP280;56298;49.246;9.410;2023-01-23T12:32:32;100873.38;;;3.89
69186;BMP280;56298;49.246;9.410;2023-01-23T12:35:15;100871.22;;;3.91
69186;BMP280;56298;49.246;9.410;2023-01-23T12:37:56;100868.56;;;4.11
69186;BMP280;56298;49.246;9.410;2023-01-23T12:40:32;100868.78;;;3.89
69186;BMP280;56298;49.246;9.410;2023-01-23T12:43:15;100877.41;;;3.70
69186;BMP280;56298;49.246;9.410;2023-01-23T12:45:47;100873.41;;;3.94
69186;BMP280;56298;49.246;9.410;2023-01-23T12:48:20;100873.34;;;3.73
69186;BMP280;56298;49.246;9.410;2023-01-23T12:50:50;100870.19;;;4.02
69186;BMP280;56298;49.246;9.410;2023-01-23T12:53:18;100870.97;;;3.97
69186;BMP280;56298;49.246;9.410;2023-01-23T12:56:03;100866.91;;;4.05
69186;BMP280;56298;49.246;9.410;2023-01-23T12:58:33;100868.25;;;3.92
69186;BMP280;56298;49.246;9.410;2023-01-23T13:04:21;100856.13;;;3.41
69186;BMP280;56298;49.246;9.410;2023-01-23T13:12:37;100847.22;;;3.51
69186;BMP280;56298;49.246;9.410;2023-01-23T13:17:46;100835.03;;;3.64
69186;BMP280;56298;49.246;9.410;2023-01-23T13:23:29;100845.53;;;3.40
69186;BMP280;56298;49.246;9.410;2023-01-23T13:31:44;100845.34;;;3.09
69186;BMP280;56298;49.246;9.410;2023-01-23T13:36:46;100839.34;;;3.55
69186;BMP280;56298;49.246;9.410;2023-01-23T13:39:22;100833.88;;;3.44
69186;BMP280;56298;49.246;9.410;2023-01-23T13:48:21;100842.88;;;3.02
69186;BMP280;56298;49.246;9.410;2023-01-23T13:51:19;100837.22;;;3.09
69186;BMP280;56298;49.246;9.410;2023-01-23T13:53:47;100834.72;;;3.02
69186;BMP280;56298;49.246;9.410;2023-01-23T13:56:33;100832.31;;;3.00
69186;BMP280;56298;49.246;9.410;2023-01-23T13:59:10;100831.28;;;3.12
69186;BMP280;56298;49.246;9.410;2023-01-23T14:01:45;100838.63;;;3.16
69186;BMP280;56298;49.246;9.410;2023-01-23T14:04:33;100841.88;;;3.13
69186;BMP280;56298;49.246;9.410;2023-01-23T14:07:24;100840.44;;;3.05
69186;BMP280;56298;49.246;9.410;2023-01-23T14:10:30;100845.88;;;3.05
69186;BMP280;56298;49.246;9.410;2023-01-23T14:13:28;100840.44;;;3.05
69186;BMP280;56298;49.246;9.410;2023-01-23T14:15:54;100836.41;;;3.08
69186;BMP280;56298;49.246;9.410;2023-01-23T14:18:48;100845.88;;;3.05
69186;BMP280;56298;49.246;9.410;2023-01-23T14:21:25;100844.69;;;2.91
69186;BMP280;56298;49.246;9.410;2023-01-23T14:23:58;100843.06;;;2.90
69186;BMP280;56298;49.246;9.410;2023-01-23T14:26:33;100841.41;;;2.84
69186;BMP280;56298;49.246;9.410;2023-01-23T14:29:21;100839.13;;;2.70
69186;BMP280;56298;49.246;9.410;2023-01-23T14:31:47;100835.03;;;2.62
69186;BMP280;56298;49.246;9.410;2023-01-23T14:34:14;100831.50;;;2.62
69186;BMP280;56298;49.246;9.410;2023-01-23T14:36:43;100830.16;;;2.64
69186;BMP280;56298;49.246;9.410;2023-01-23T14:39:17;100837.53;;;2.69
69186;BMP280;56298;49.246;9.410;2023-01-23T14:41:43;100829.88;;;2.61
69186;BMP280;56298;49.246;9.410;2023-01-23T14:44:17;100822.06;;;2.70
69186;BMP280;56298;49.246;9.410;2023-01-23T14:46:44;100833.25;;;2.78
69186;BMP280;56298;49.246;9.410;2023-01-23T14:49:13;100830.41;;;2.63
69186;BMP280;56298;49.246;9.410;2023-01-23T14:51:56;100835.09;;;2.73
69186;BMP280;56298;49.246;9.410;2023-01-23T14:54:22;100838.31;;;2.70
69186;BMP280;56298;49.246;9.410;2023-01-23T14:56:48;100831.66;;;2.83
69186;BMP280;56298;49.246;9.410;2023-01-23T14:59:33;100824.69;;;2.92
69186;BMP280;56298;49.246;9.410;2023-01-23T15:02:01;100830.34;;;2.90
69186;BMP280;56298;49.246;9.410;2023-01-23T15:04:28;100832.50;;;2.88
69186;BMP280;56298;49.246;9.410;2023-01-23T15:06:57;100834.25;;;2.72
69186;BMP280;56298;49.246;9.410;2023-01-23T15:09:35;100823.63;;;2.60
69186;BMP280;56298;49.246;9.410;2023-01-23T15:12:07;100826.38;;;2.71
69186;BMP280;56298;49.246;9.410;2023-01-23T15:14:38;100826.31;;;2.93
69186;BMP280;56298;49.246;9.410;2023-01-23T15:17:05;100818.41;;;2.86
69186;BMP280;56298;49.246;9.410;2023-01-23T15:19:34;100825.16;;;2.84
69186;BMP280;56298;49.246;9.410;2023-01-23T15:24:43;100819.25;;;2.92
69186;BMP280;56298;49.246;9.410;2023-01-23T15:27:23;100817.97;;;3.05
69186;BMP280;56298;49.246;9.410;2023-01-23T15:29:49;100826.59;;;2.97
69186;BMP280;56298;49.246;9.410;2023-01-23T15:32:20;100819.56;;;2.96
69186;BMP280;56298;49.246;9.410;2023-01-23T15:34:51;100831.72;;;2.93
69186;BMP280;56298;49.246;9.410;2023-01-23T15:37:23;100821.97;;;2.92
69186;BMP280;56298;49.246;9.410;2023-01-23T15:39:57;100822.47;;;2.89
69186;BMP280;56298;49.246;9.410;2023-01-23T15:44:51;100827.00;;;2.78
69186;BMP280;56298;49.246;9.410;2023-01-23T15:47:16;100815.22;;;2.95
69186;BMP280;56298;49.246;9.410;2023-01-23T15:49:42;100819.56;;;2.96
69186;BMP280;56298;49.246;9.410;2023-01-23T15:52:29;100817.13;;;2.99
69186;BMP280;56298;49.246;9.410;2023-01-23T15:54:58;100817.09;;;2.94
69186;BMP280;56298;49.246;9.410;2023-01-23T15:57:24;100815.94;;;2.85
69186;BMP280;56298;49.246;9.410;2023-01-23T15:59:49;100816.19;;;2.83
69186;BMP280;56298;49.246;9.410;2023-01-23T16:02:19;100814.94;;;2.96